Latest Weather Observations for Tatura

IDV60801

Issued at 9:02 pm EST Thursday 20 June 2019 (issued every 10 minutes, with the page automatically refreshed every 10 minutes)

About weather observations | Map of weather stations | Latest weather observations for VIC | Other Formats
Station Details ID: 081049 Name: TATURA INST SUSTAINABLE AG Lat: -36.44 Lon: 145.27 Height: 114.0 m
Data from the previous 72 hours. | See also: Recent months at Tatura
Date/Time
EST
Temp
°C
App
Temp
°C
Dew
Point
°C
Rel
Hum
%
Delta-T
°C
Wind Press
QNH
hPa
Press
MSL
hPa
Rain since
9am
mm
Dir  Spd
km/h
Gust
km/h
Spd
kts
Gust
kts
20/09:00pm 6.4 3.6 5.2 92 0.5 WSW 9 13 5 7 - - 0.0
20/08:30pm 6.9 3.8 5.5 91 0.6 SW 11 15 6 8 - - 0.0
20/08:00pm 6.9 4.2 5.5 91 0.6 WSW 9 13 5 7 - - 0.0
20/07:30pm 6.9 4.6 5.7 92 0.5 WSW 7 9 4 5 - - 0.0
20/07:00pm 6.8 4.4 5.4 91 0.6 WSW 7 9 4 5 - - 0.0
20/06:30pm 6.9 4.5 5.1 88 0.8 WSW 7 11 4 6 - - 0.0
20/06:00pm 7.6 5.2 5.2 85 1.1 WSW 7 11 4 6 - - 0.0
20/05:30pm 7.8 4.6 4.9 82 1.3 SW 11 15 6 8 - - 0.0
20/05:00pm 8.5 5.6 4.5 76 1.8 SW 9 13 5 7 - - 0.0
20/04:30pm 8.9 4.8 4.5 74 2.0 SW 15 20 8 11 - - 0.0
20/04:00pm 9.1 5.4 4.5 73 2.0 SW 13 20 7 11 - - 0.0
20/03:30pm 9.3 4.8 4.3 71 2.2 SW 17 22 9 12 - - 0.0
20/03:00pm 9.6 6.7 4.4 70 2.3 SW 9 15 5 8 - - 0.0
20/02:30pm 9.7 6.3 3.9 67 2.6 WSW 11 17 6 9 - - 0.0
20/02:00pm 10.0 6.8 3.3 63 2.9 SW 9 13 5 7 - - 0.0
20/01:30pm 10.0 7.0 4.0 66 2.7 WSW 9 13 5 7 - - 0.0
20/01:00pm 10.0 7.9 5.8 75 1.9 WSW 6 11 3 6 - - 0.0
20/12:30pm 9.8 8.2 6.2 78 1.7 W 4 9 2 5 - - 0.0
20/12:00pm 9.4 7.4 6.3 81 1.4 WNW 6 13 3 7 - - 0.0
20/11:30am 8.3 7.2 6.9 91 0.7 NW 2 7 1 4 - - 0.0
20/11:00am 7.0 5.2 7.0 100 0.0 NW 6 7 3 4 - - 0.0
20/10:30am 5.8 4.8 5.8 100 0.0 CALM 0 0 0 0 - - 0.0
20/10:00am 5.1 3.6 5.1 100 0.0 WNW 2 7 1 4 - - 0.0
20/09:30am 3.9 2.2 3.9 100 0.0 NNW 2 7 1 4 - - 0.0
20/09:00am 3.2 1.7 3.2 100 0.0 CALM 0 0 0 0 - - 0.2
20/08:30am 2.2 0.6 2.2 100 0.0 CALM 0 0 0 0 - - 0.2
20/08:00am 0.0 -2.0 0.0 100 0.0 CALM 0 0 0 0 - - 0.0
20/07:30am 0.1 -3.0 0.1 100 0.0 SSW 6 9 3 5 - - 0.0
20/07:00am 0.2 -3.1 0.2 100 0.0 SSE 7 9 4 5 - - 0.0
20/06:30am 0.5 -1.4 0.5 100 0.0 CALM 0 0 0 0 - - 0.0
20/06:00am 0.8 -2.4 0.8 100 0.0 SE 7 7 4 4 - - 0.0
20/05:30am 1.1 -1.9 1.1 100 0.0 S 6 7 3 4 - - 0.0
20/05:00am 2.0 -1.0 2.0 100 0.0 SSE 7 9 4 5 - - 0.0
20/04:30am 2.3 -0.7 2.3 100 0.0 S 7 9 4 5 - - 0.0
20/04:00am 2.5 -0.8 2.5 100 0.0 SSE 9 11 5 6 - - 0.0
20/03:30am 2.6 -0.3 2.6 100 0.0 S 7 9 4 5 - - 0.0
20/03:00am 3.0 0.2 3.0 100 0.0 S 7 9 4 5 - - 0.0
20/02:30am 3.5 0.0 3.5 100 0.0 S 11 13 6 7 - - 0.0
20/02:00am 3.3 0.1 3.3 100 0.0 S 9 11 5 6 - - 0.0
20/01:30am 3.7 0.6 3.7 100 0.0 S 9 11 5 6 - - 0.0
20/01:00am 4.2 1.2 4.1 99 0.0 S 9 11 5 6 - - 0.0
20/12:30am 4.3 1.6 3.9 97 0.2 S 7 9 4 5 - - 0.0
20/12:00am 4.7 1.7 4.1 96 0.3 S 9 13 5 7 - - 0.0
 
Date/Time
EST
Temp
°C
App
Temp
°C
Dew
Point
°C
Rel
Hum
%
Delta-T
°C
Wind Press
QNH
hPa
Press
MSL
hPa
Rain since
9am
mm
Dir  Spd
km/h
Gust
km/h
Spd
kts
Gust
kts
19/11:30pm 5.0 2.1 4.4 96 0.3 SSW 9 13 5 7 - - 0.0
19/11:00pm 5.2 2.2 4.3 94 0.4 SSW 9 13 5 7 - - 0.0
19/10:30pm 5.6 2.7 4.6 93 0.4 SSW 9 11 5 6 - - 0.0
19/10:00pm 6.0 3.2 5.0 93 0.4 SSW 9 11 5 6 - - 0.0
19/09:30pm 5.5 2.9 4.3 92 0.5 SSW 7 9 4 5 - - 0.0
19/09:00pm 6.2 3.6 4.2 87 0.9 S 7 7 4 4 - - 0.0
19/08:30pm 7.3 4.4 4.6 83 1.2 S 9 9 5 5 - - 0.0
19/08:00pm 7.8 4.9 4.7 81 1.4 SSW 9 11 5 6 - - 0.0
19/07:30pm 7.9 5.4 5.0 82 1.3 S 7 9 4 5 - - 0.0
19/07:00pm 8.3 5.4 4.9 79 1.5 S 9 11 5 6 - - 0.0
19/06:30pm 8.4 5.9 4.8 78 1.6 SSW 7 9 4 5 - - 0.0
19/06:00pm 8.4 5.9 4.6 77 1.7 SW 7 9 4 5 - - 0.0
19/05:30pm 8.8 6.2 4.4 74 1.9 SSW 7 9 4 5 - - 0.0
19/05:00pm 9.3 7.7 4.3 71 2.2 SSW 2 7 1 4 - - 0.0
19/04:30pm 9.9 7.6 4.9 71 2.3 S 6 11 3 6 - - 0.0
19/04:00pm 10.2 7.7 4.6 68 2.5 SSW 7 9 4 5 - - 0.0
19/03:30pm 10.3 6.9 4.2 66 2.7 SSW 11 15 6 8 - - 0.0
19/03:00pm 10.7 7.3 4.0 63 3.0 S 11 17 6 9 - - 0.0
19/02:30pm 10.9 7.6 4.8 66 2.8 S 11 17 6 9 - - 0.0
19/02:00pm 10.4 6.8 5.0 69 2.5 S 13 24 7 13 - - 0.0
19/01:30pm 10.2 6.1 4.6 68 2.5 S 15 19 8 10 - - 0.0
19/01:00pm 10.0 5.9 4.4 68 2.5 S 15 20 8 11 - - 0.0
19/12:30pm 10.0 6.4 4.8 70 2.3 S 13 19 7 10 - - 0.0
19/12:00pm 9.5 5.9 4.9 73 2.1 S 13 17 7 9 - - 0.0
19/11:30am 8.9 5.2 4.5 74 2.0 S 13 20 7 11 - - 0.0
19/11:00am 8.3 5.5 5.2 81 1.4 SSW 9 13 5 7 - - 0.0
19/10:30am 7.1 4.7 5.4 89 0.8 S 7 9 4 5 - - 0.0
19/10:00am 6.0 3.6 5.3 95 0.3 SW 7 9 4 5 - - 0.0
19/09:30am 4.8 1.9 4.8 100 0.0 WSW 9 13 5 7 - - 0.0
19/09:00am 3.4 2.0 3.4 100 0.0 CALM 0 6 0 3 - - 0.6
19/08:30am 2.0 -1.0 2.0 100 0.0 WSW 7 9 4 5 - - 0.6
19/08:00am 0.7 -1.2 0.7 100 0.0 CALM 0 0 0 0 - - 0.6
19/07:30am 0.0 -3.3 0.0 100 0.0 W 7 9 4 5 - - 0.6
19/07:00am 0.3 -1.6 0.3 100 0.0 CALM 0 0 0 0 - - 0.6
19/06:30am 1.4 -0.4 1.4 100 0.0 CALM 0 7 0 4 - - 0.6
19/06:00am 1.7 -1.7 1.7 100 0.0 W 9 13 5 7 - - 0.6
19/05:30am 1.6 -1.5 1.6 100 0.0 W 7 11 4 6 - - 0.6
19/05:00am 1.6 -1.8 1.6 100 0.0 W 9 11 5 6 - - 0.6
19/04:30am 1.7 -1.4 1.6 99 0.0 W 7 9 4 5 - - 0.6
19/04:00am 2.8 -0.4 2.8 100 0.0 WSW 9 11 5 6 - - 0.6
19/03:30am 2.9 -0.3 2.9 100 0.0 WSW 9 13 5 7 - - 0.6
19/03:00am 2.7 -0.6 2.7 100 0.0 WSW 9 13 5 7 - - 0.6
19/02:30am 2.4 -0.6 2.3 99 0.0 WSW 7 9 4 5 - - 0.6
19/02:00am 2.9 -0.4 2.6 98 0.1 SW 9 11 5 6 - - 0.6
19/01:30am 3.2 0.0 2.8 97 0.2 SW 9 9 5 5 - - 0.6
19/01:00am 3.7 0.5 3.0 95 0.3 WSW 9 11 5 6 - - 0.6
19/12:30am 4.0 1.2 3.1 94 0.4 WSW 7 11 4 6 - - 0.6
19/12:00am 4.3 1.1 3.3 93 0.4 WSW 9 11 5 6 - - 0.6
 
Date/Time
EST
Temp
°C
App
Temp
°C
Dew
Point
°C
Rel
Hum
%
Delta-T
°C
Wind Press
QNH
hPa
Press
MSL
hPa
Rain since
9am
mm
Dir  Spd
km/h
Gust
km/h
Spd
kts
Gust
kts
18/11:30pm 4.6 1.5 3.4 92 0.5 WSW 9 13 5 7 - - 0.6
18/11:00pm 5.0 1.6 3.8 92 0.5 WSW 11 17 6 9 - - 0.6
18/10:30pm 4.8 1.0 3.8 93 0.4 W 13 15 7 8 - - 0.4
18/10:00pm 4.7 1.3 3.8 94 0.4 WSW 11 13 6 7 - - 0.4
18/09:30pm 5.0 2.4 4.3 95 0.3 WSW 7 9 4 5 - - 0.4
18/09:00pm 4.9 2.3 4.3 96 0.3 WSW 7 9 4 5 - - 0.4
18/08:30pm 5.5 3.0 4.9 96 0.3 WSW 7 9 4 5 - - 0.4
18/08:00pm 6.0 3.6 5.4 96 0.3 WSW 7 9 4 5 - - 0.4
18/07:30pm 5.8 3.1 5.4 97 0.2 W 9 11 5 6 - - 0.4
18/07:00pm 6.0 4.1 5.0 93 0.4 SW 4 7 2 4 - - 0.4
18/06:30pm 7.2 5.0 6.1 93 0.5 SSW 7 9 4 5 - - 0.4
18/06:00pm 7.9 5.4 6.7 92 0.6 WSW 9 13 5 7 - - 0.4
18/05:30pm 8.2 5.8 6.8 91 0.7 W 9 13 5 7 - - 0.4
18/05:00pm 9.0 6.7 7.3 89 0.8 W 9 15 5 8 - - 0.4
18/04:30pm 8.9 4.6 7.0 88 0.9 WSW 19 30 10 16 - - 0.2
18/04:00pm 11.1 5.8 4.8 65 2.9 W 22 35 12 19 - - 0.2
18/03:30pm 12.8 8.9 7.0 68 2.8 WNW 17 24 9 13 - - 0.2
18/03:00pm 12.2 9.1 7.3 72 2.4 WNW 13 22 7 12 - - 0.2
18/02:30pm 12.2 9.8 8.5 78 1.8 W 11 19 6 10 - - 0.2
18/02:00pm 11.7 7.8 8.7 82 1.5 WNW 19 22 10 12 - - 0.2
18/01:30pm 11.0 7.5 8.9 87 1.0 WNW 17 22 9 12 - - 0.2
18/01:00pm 10.6 6.7 8.5 87 1.0 WNW 19 26 10 14 - - 0.2
18/12:30pm 10.5 6.7 9.1 91 0.7 WNW 19 24 10 13 - - 0.2
18/12:00pm 10.2 7.5 9.0 92 0.6 NW 13 20 7 11 - - 0.2
18/11:30am 10.4 6.8 8.3 87 1.0 WNW 17 22 9 12 - - 0.2
18/11:00am 10.5 6.8 7.9 84 1.3 NW 17 22 9 12 - - 0.2
18/10:30am 10.8 7.5 8.2 84 1.3 NW 15 19 8 10 - - 0.2
18/10:00am 10.0 7.6 8.6 91 0.7 N 11 15 6 8 - - 0.2
18/09:30am 8.8 6.8 8.8 100 0.0 N 9 15 5 8 - - 0.2
18/09:00am 7.9 5.3 7.9 100 0.0 NNE 11 17 6 9 - - 0.0
18/08:30am 6.8 4.4 6.8 100 0.0 NNE 9 11 5 6 - - 0.0
18/08:00am 7.0 4.6 7.0 100 0.0 NNE 9 13 5 7 - - 0.0
18/07:30am 7.1 4.7 7.1 100 0.0 NE 9 13 5 7 - - 0.0
18/07:00am 7.0 4.6 7.0 100 0.0 NE 9 15 5 8 - - 0.0
18/06:30am 7.1 5.1 7.1 100 0.0 ENE 7 11 4 6 - - 0.0
18/06:00am 7.2 5.2 7.2 100 0.0 NE 7 9 4 5 - - 0.0
18/05:30am 7.1 5.1 7.1 100 0.0 NNE 7 11 4 6 - - 0.0
18/05:00am 6.6 3.7 6.6 100 0.0 NE 11 17 6 9 - - 0.0
18/04:30am 6.7 3.5 6.7 100 0.0 NE 13 17 7 9 - - 0.0
18/04:00am 6.6 3.7 6.6 100 0.0 NE 11 13 6 7 - - 0.0
18/03:30am 6.5 4.0 6.5 100 0.0 NNE 9 11 5 6 - - 0.0
18/03:00am 6.5 4.0 6.5 100 0.0 NE 9 11 5 6 - - 0.0
18/02:30am 6.8 4.4 6.8 100 0.0 NNE 9 11 5 6 - - 0.0
18/02:00am 6.9 4.9 6.9 100 0.0 NE 7 11 4 6 - - 0.0
18/01:30am 7.3 5.0 7.3 100 0.0 NE 9 13 5 7 - - 0.0
18/01:00am 7.6 5.0 7.6 100 0.0 NE 11 15 6 8 - - 0.0
18/12:30am 7.8 4.8 7.8 100 0.0 NE 13 17 7 9 - - 0.0
18/12:00am 7.9 4.9 7.9 100 0.0 NE 13 17 7 9 - - 0.0
 
Date/Time
EST
Temp
°C
App
Temp
°C
Dew
Point
°C
Rel
Hum
%
Delta-T
°C
Wind Press
QNH
hPa
Press
MSL
hPa
Rain since
9am
mm
Dir  Spd
km/h
Gust
km/h
Spd
kts
Gust
kts
17/11:30pm 7.6 5.3 7.6 100 0.0 NE 9 13 5 7 - - 0.0
17/11:00pm 7.3 5.0 7.3 100 0.0 NE 9 13 5 7 - - 0.0
17/10:30pm 5.9 3.6 5.9 100 0.0 NE 7 9 4 5 - - 0.0
17/10:00pm 4.4 2.0 4.4 100 0.0 NE 6 9 3 5 - - 0.0
17/09:30pm 4.4 1.8 4.4 100 0.0 NE 7 9 4 5 - - 0.0

Other formats

Comma delimited format used in spreadsheet applications
http://www.bom.gov.au/fwo/IDV60801/IDV60801.95836.axf

JavaScript Object Notation format (JSON) in row-major order
http://www.bom.gov.au/fwo/IDV60801/IDV60801.95836.json

Data quality

Most of these data are generated automatically and are frequently updated. Quality checks on data are not normally performed. It is possible for incorrect values to appear. Refer to information at About Latest Weather Observations and please check the disclaimer before using these data.